Time;durP1;ratioP1;P1;durP2;ratioP2;P2;SDS_P1;SDS_P2;PMS_P1;PMS_P2;Temp;Humidity;BMP_temperature;BMP_pressure;BME280_temperature;BME280_humidity;BME280_pressure;Samples;Min_cycle;Max_cycle;Signal;HPM_P1;HPM_P2
2024/02/29 00:02:13;;;;;;;27.13;15.83;;;5.80;99.90;;;;;;784939;182;26478;-83
2024/02/29 00:04:40;;;;;;;26.93;14.70;;;5.80;99.90;;;;;;785369;183;26478;-84
2024/02/29 00:07:08;;;;;;;26.47;14.43;;;5.80;99.90;;;;;;783637;183;26503;-82
2024/02/29 00:09:35;;;;;;;27.70;15.07;;;5.80;99.90;;;;;;785557;183;26474;-81
2024/02/29 00:12:00;;;;;;;25.90;15.90;;;5.80;99.90;;;;;;784588;180;26477;-82
2024/02/29 00:14:27;;;;;;;27.53;14.93;;;5.80;99.90;;;;;;783765;183;26475;-79
2024/02/29 00:16:53;;;;;;;27.30;14.70;;;5.90;99.90;;;;;;782154;183;26483;-80
2024/02/29 00:19:20;;;;;;;26.37;14.53;;;5.90;99.90;;;;;;783281;183;26512;-80
2024/02/29 00:21:46;;;;;;;28.33;14.53;;;5.80;99.90;;;;;;782379;183;26505;-82
2024/02/29 00:24:13;;;;;;;29.60;15.40;;;5.80;99.90;;;;;;782041;183;26493;-80
2024/02/29 00:26:40;;;;;;;24.80;14.23;;;5.90;99.90;;;;;;783632;183;26486;-80
2024/02/29 00:29:07;;;;;;;26.73;14.63;;;5.90;99.90;;;;;;782602;183;26538;-80
2024/02/29 00:31:33;;;;;;;29.47;15.47;;;5.90;99.90;;;;;;782529;183;26478;-81
2024/02/29 00:34:00;;;;;;;23.63;14.63;;;5.80;99.90;;;;;;782702;181;26477;-81
2024/02/29 00:36:26;;;;;;;28.90;14.83;;;5.80;99.90;;;;;;781869;183;26480;-78
2024/02/29 00:38:53;;;;;;;27.23;14.50;;;5.80;99.90;;;;;;782532;183;26511;-81
2024/02/29 00:41:19;;;;;;;31.53;16.63;;;5.70;99.90;;;;;;783466;183;26471;-81
2024/02/29 00:43:46;;;;;;;29.27;16.17;;;5.80;99.90;;;;;;782326;183;26476;-81
2024/02/29 00:46:13;;;;;;;27.47;15.57;;;5.70;99.90;;;;;;782275;183;26515;-80
2024/02/29 00:48:39;;;;;;;27.83;15.73;;;5.70;99.90;;;;;;782494;183;26493;-81
2024/02/29 00:51:06;;;;;;;27.40;15.50;;;5.60;99.90;;;;;;783526;183;27071;-81
2024/02/29 00:53:33;;;;;;;31.20;15.93;;;5.60;99.90;;;;;;782057;181;26484;-81
2024/02/29 00:55:59;;;;;;;27.73;15.57;;;5.50;99.90;;;;;;784953;181;27076;-80
2024/02/29 00:58:26;;;;;;;29.80;15.93;;;5.50;99.90;;;;;;784258;183;26521;-80
2024/02/29 01:00:54;;;;;;;30.63;17.23;;;5.50;99.90;;;;;;783257;183;27081;-80
2024/02/29 01:03:19;;;;;;;28.87;15.27;;;5.40;99.90;;;;;;784097;183;26486;-82
2024/02/29 01:05:46;;;;;;;31.67;16.30;;;5.40;99.90;;;;;;781687;183;27162;-81
2024/02/29 01:08:12;;;;;;;35.77;16.40;;;5.50;99.90;;;;;;783922;183;26902;-80
2024/02/29 01:10:39;;;;;;;30.67;16.83;;;5.60;99.90;;;;;;783091;183;26486;-81
2024/02/29 01:13:06;;;;;;;28.00;15.43;;;5.50;99.90;;;;;;782483;183;26475;-80
2024/02/29 01:15:32;;;;;;;29.50;15.53;;;5.60;99.90;;;;;;781164;183;26488;-81
2024/02/29 01:17:59;;;;;;;31.33;16.50;;;5.70;99.90;;;;;;782860;183;26494;-80
2024/02/29 01:20:25;;;;;;;36.27;16.63;;;5.60;99.90;;;;;;782812;183;26485;-79
2024/02/29 01:22:52;;;;;;;33.07;16.67;;;5.70;99.90;;;;;;781793;183;26497;-81
2024/02/29 01:25:19;;;;;;;32.27;17.20;;;5.60;99.90;;;;;;781411;183;26467;-82
2024/02/29 01:27:45;;;;;;;31.30;16.87;;;5.60;99.90;;;;;;783549;180;26541;-81
2024/02/29 01:30:12;;;;;;;33.40;17.27;;;5.60;99.90;;;;;;784388;183;26470;-80
2024/02/29 01:32:39;;;;;;;32.37;16.73;;;5.60;99.90;;;;;;781258;183;26488;-79
2024/02/29 01:35:06;;;;;;;32.93;16.37;;;5.60;99.90;;;;;;782728;183;26447;-81
2024/02/29 01:37:32;;;;;;;33.30;18.23;;;5.60;99.90;;;;;;782966;183;26528;-80
2024/02/29 01:39:59;;;;;;;37.33;17.97;;;5.50;99.90;;;;;;781489;183;26491;-80
2024/02/29 01:42:26;;;;;;;30.87;16.53;;;5.50;99.90;;;;;;779756;183;26648;-79
2024/02/29 01:44:54;;;;;;;35.47;17.93;;;5.60;99.90;;;;;;781434;183;26471;-79
2024/02/29 01:47:20;;;;;;;37.80;17.67;;;5.40;99.90;;;;;;780322;183;27098;-80
2024/02/29 01:49:46;;;;;;;41.13;17.67;;;5.50;99.90;;;;;;782125;183;26471;-79
2024/02/29 01:52:13;;;;;;;35.37;17.37;;;5.60;99.90;;;;;;782364;183;26557;-81
2024/02/29 01:54:40;;;;;;;36.37;18.67;;;5.60;99.90;;;;;;781007;183;26505;-81
2024/02/29 01:57:06;;;;;;;31.90;16.80;;;5.50;99.90;;;;;;783018;183;27002;-80
2024/02/29 01:59:33;;;;;;;36.27;17.77;;;5.50;99.90;;;;;;783073;180;26491;-80
2024/02/29 02:01:59;;;;;;;31.80;16.03;;;5.40;99.90;;;;;;783532;183;26499;-81
2024/02/29 02:04:26;;;;;;;35.27;18.63;;;5.30;99.90;;;;;;781964;183;26498;-82
2024/02/29 02:06:53;;;;;;;34.27;17.97;;;5.20;99.90;;;;;;785320;180;26503;-81
2024/02/29 02:09:19;;;;;;;33.83;17.57;;;5.30;99.90;;;;;;784163;182;26552;-80
2024/02/29 02:11:46;;;;;;;37.83;17.93;;;5.30;99.90;;;;;;784662;183;26469;-80
2024/02/29 02:14:12;;;;;;;32.93;16.67;;;5.20;99.90;;;;;;784454;182;26474;-80
2024/02/29 02:16:39;;;;;;;35.30;18.33;;;5.10;99.90;;;;;;783871;183;26467;-80
2024/02/29 02:19:13;;;;;;;34.33;18.67;;;5.00;99.90;;;;;;782958;182;26495;-79
2024/02/29 02:21:40;;;;;;;36.50;18.87;;;5.10;99.90;;;;;;785386;183;26475;-79
2024/02/29 02:24:06;;;;;;;35.63;17.87;;;5.20;99.90;;;;;;783432;183;26469;-79
2024/02/29 02:26:33;;;;;;;32.93;17.30;;;5.30;99.90;;;;;;783445;183;27015;-81
2024/02/29 02:28:59;;;;;;;37.60;19.23;;;5.20;99.90;;;;;;782862;183;26546;-82
2024/02/29 02:31:26;;;;;;;37.90;18.60;;;5.20;99.90;;;;;;783256;183;26485;-81
2024/02/29 02:33:53;;;;;;;34.33;18.00;;;5.10;99.90;;;;;;782461;181;26479;-80
2024/02/29 02:36:19;;;;;;;38.43;17.63;;;5.10;99.90;;;;;;782917;183;27018;-81
2024/02/29 02:38:46;;;;;;;35.97;18.00;;;5.10;99.90;;;;;;782487;183;26502;-81
2024/02/29 02:41:13;;;;;;;36.43;19.60;;;5.10;99.90;;;;;;782095;183;27036;-79
2024/02/29 02:43:39;;;;;;;31.40;17.53;;;5.10;99.90;;;;;;781744;183;26496;-79
2024/02/29 02:46:06;;;;;;;36.00;18.40;;;5.00;99.90;;;;;;783608;183;26504;-79
2024/02/29 02:48:32;;;;;;;37.93;19.00;;;5.00;99.90;;;;;;782873;183;26513;-81
2024/02/29 02:50:59;;;;;;;37.77;18.73;;;5.00;99.90;;;;;;782510;183;26493;-82
2024/02/29 02:53:25;;;;;;;37.93;19.60;;;4.90;99.90;;;;;;782821;183;26482;-80
2024/02/29 02:55:52;;;;;;;38.73;18.37;;;5.00;99.90;;;;;;783571;183;26494;-80
2024/02/29 02:58:19;;;;;;;38.50;18.83;;;4.90;99.90;;;;;;782207;183;26510;-79
2024/02/29 03:00:45;;;;;;;33.73;17.83;;;5.00;99.90;;;;;;780340;183;27070;-81
2024/02/29 03:03:12;;;;;;;39.33;19.23;;;5.00;99.90;;;;;;783456;183;26500;-80
2024/02/29 03:05:38;;;;;;;37.63;18.27;;;4.90;99.90;;;;;;783103;183;27046;-81
2024/02/29 03:08:05;;;;;;;40.07;19.43;;;5.00;99.90;;;;;;782937;183;26494;-81
2024/02/29 03:10:33;;;;;;;39.07;19.73;;;5.00;99.90;;;;;;782483;183;26499;-80
2024/02/29 03:12:59;;;;;;;33.20;18.37;;;5.00;99.90;;;;;;783938;183;26478;-80
2024/02/29 03:15:25;;;;;;;39.63;19.90;;;5.00;99.90;;;;;;784502;183;26483;-81
2024/02/29 03:17:55;;;;;;;37.90;18.77;;;5.10;99.90;;;;;;786490;180;26508;-81
2024/02/29 03:20:18;;;;;;;38.23;17.97;;;5.00;99.90;;;;;;783292;183;26487;-81
2024/02/29 03:22:45;;;;;;;40.73;19.50;;;4.90;99.90;;;;;;784837;183;26482;-80
2024/02/29 03:25:12;;;;;;;39.40;20.47;;;4.90;99.90;;;;;;784772;180;26491;-80
2024/02/29 03:27:38;;;;;;;36.50;19.00;;;4.90;99.90;;;;;;783769;180;26501;-81
2024/02/29 03:30:05;;;;;;;38.77;18.13;;;4.90;99.90;;;;;;782800;183;26474;-80
2024/02/29 03:32:32;;;;;;;39.97;19.83;;;4.90;99.90;;;;;;783880;183;26478;-80
2024/02/29 03:34:59;;;;;;;44.60;19.30;;;4.90;99.90;;;;;;783731;183;26520;-81
2024/02/29 03:37:25;;;;;;;34.87;17.97;;;4.90;99.90;;;;;;784909;183;26500;-81
2024/02/29 03:39:52;;;;;;;38.60;18.50;;;4.80;99.90;;;;;;783003;182;26492;-80
2024/02/29 03:42:19;;;;;;;35.57;18.10;;;4.90;99.90;;;;;;784026;183;26644;-80
2024/02/29 03:44:46;;;;;;;35.17;17.27;;;4.90;99.90;;;;;;782231;183;26474;-79
2024/02/29 03:47:12;;;;;;;31.20;16.73;;;4.90;99.90;;;;;;784781;183;27008;-80
2024/02/29 03:49:38;;;;;;;33.50;17.20;;;5.00;99.90;;;;;;783666;183;28233;-81
2024/02/29 03:52:05;;;;;;;36.57;18.30;;;5.00;99.90;;;;;;783017;183;26487;-81
2024/02/29 03:54:32;;;;;;;30.97;16.03;;;5.00;99.90;;;;;;782927;183;26466;-81
2024/02/29 03:57:00;;;;;;;38.10;17.90;;;4.90;99.90;;;;;;782906;183;26462;-80
2024/02/29 03:59:26;;;;;;;36.90;18.20;;;4.80;99.90;;;;;;782741;183;26526;-81
2024/02/29 04:01:52;;;;;;;35.97;17.60;;;4.90;99.90;;;;;;782378;183;27060;-80
2024/02/29 04:04:19;;;;;;;39.07;19.27;;;4.80;99.90;;;;;;776889;183;26471;-80
2024/02/29 04:06:46;;;;;;;35.70;17.87;;;4.80;99.90;;;;;;783866;183;26462;-80
2024/02/29 04:09:13;;;;;;;37.87;18.53;;;4.90;99.90;;;;;;783463;183;27003;-79
2024/02/29 04:11:39;;;;;;;36.97;18.63;;;4.90;99.90;;;;;;781424;183;26478;-80
2024/02/29 04:14:06;;;;;;;40.83;19.37;;;4.90;99.90;;;;;;784461;183;26481;-80
2024/02/29 04:16:36;;;;;;;38.67;18.30;;;4.90;99.90;;;;;;783241;183;27022;-81
2024/02/29 04:19:03;;;;;;;35.40;17.83;;;4.90;99.90;;;;;;782091;183;26500;-81
2024/02/29 04:21:29;;;;;;;41.17;19.23;;;4.90;99.90;;;;;;782115;183;27029;-79
2024/02/29 04:23:56;;;;;;;36.87;18.50;;;4.90;99.90;;;;;;780684;183;26475;-80
2024/02/29 04:26:24;;;;;;;39.60;18.33;;;4.90;99.90;;;;;;781987;183;26488;-81
2024/02/29 04:28:49;;;;;;;38.27;19.77;;;4.80;99.90;;;;;;782251;181;26505;-81
2024/02/29 04:31:16;;;;;;;37.17;18.83;;;4.70;99.90;;;;;;783001;183;26513;-80
2024/02/29 04:33:43;;;;;;;35.23;18.03;;;4.80;99.90;;;;;;783390;183;27021;-80
2024/02/29 04:36:10;;;;;;;40.43;19.10;;;4.80;99.90;;;;;;784126;183;26462;-80
2024/02/29 04:38:36;;;;;;;37.43;17.80;;;4.70;99.90;;;;;;783411;183;26502;-81
2024/02/29 04:41:03;;;;;;;38.90;20.00;;;4.70;99.90;;;;;;783697;182;27065;-80
2024/02/29 04:43:32;;;;;;;38.13;18.07;;;4.70;99.90;;;;;;784063;183;26501;-80
2024/02/29 04:46:00;;;;;;;39.07;18.77;;;4.70;99.90;;;;;;783343;183;26461;-81
2024/02/29 04:48:26;;;;;;;38.67;18.23;;;4.70;99.90;;;;;;782266;183;26486;-79
2024/02/29 04:50:52;;;;;;;39.20;20.27;;;4.70;99.90;;;;;;782894;183;26474;-81
2024/02/29 04:53:18;;;;;;;45.40;19.07;;;4.60;99.90;;;;;;782848;183;26499;-80
2024/02/29 04:55:45;;;;;;;39.17;19.03;;;4.60;99.90;;;;;;781292;184;26522;-80
2024/02/29 04:58:12;;;;;;;44.60;19.73;;;4.50;99.90;;;;;;784164;183;26708;-80
2024/02/29 05:00:38;;;;;;;38.10;18.37;;;4.60;99.90;;;;;;784280;183;27016;-80
2024/02/29 05:03:05;;;;;;;39.47;20.13;;;4.50;99.90;;;;;;782532;183;26586;-80
2024/02/29 05:05:31;;;;;;;39.33;19.33;;;4.60;99.90;;;;;;781799;183;26644;-79
2024/02/29 05:07:58;;;;;;;38.93;18.10;;;4.60;99.90;;;;;;782315;183;27041;-79
2024/02/29 05:10:25;;;;;;;39.97;19.43;;;4.50;99.90;;;;;;783919;183;26458;-80
2024/02/29 05:12:53;;;;;;;40.20;20.83;;;4.60;99.90;;;;;;781504;183;26999;-80
2024/02/29 05:15:20;;;;;;;41.87;19.67;;;4.60;99.90;;;;;;781440;183;26473;-80
2024/02/29 05:17:47;;;;;;;37.90;18.83;;;4.60;99.90;;;;;;782720;183;27060;-81
2024/02/29 05:20:13;;;;;;;44.07;19.53;;;4.60;99.90;;;;;;783035;183;27041;-81
2024/02/29 05:22:40;;;;;;;39.93;19.40;;;4.60;99.90;;;;;;780317;183;26522;-81
2024/02/29 05:25:09;;;;;;;43.50;21.53;;;4.50;99.90;;;;;;781691;183;26467;-80
2024/02/29 05:27:37;;;;;;;43.97;20.47;;;4.50;99.90;;;;;;782941;183;26654;-81
2024/02/29 05:30:04;;;;;;;43.87;19.87;;;4.60;99.90;;;;;;780669;183;26460;-80
2024/02/29 05:32:31;;;;;;;43.93;20.10;;;4.60;99.90;;;;;;782750;183;26470;-78
2024/02/29 05:34:57;;;;;;;42.40;20.27;;;4.60;99.90;;;;;;783922;183;26459;-82
2024/02/29 05:37:24;;;;;;;44.77;20.63;;;4.60;99.90;;;;;;783403;183;26493;-78
2024/02/29 05:39:51;;;;;;;44.03;20.47;;;4.60;99.90;;;;;;783013;181;26477;-76
2024/02/29 05:42:17;;;;;;;41.10;20.60;;;4.70;99.90;;;;;;785571;181;27274;-75
2024/02/29 05:44:44;;;;;;;43.40;21.60;;;4.70;99.90;;;;;;784346;180;26538;-80
2024/02/29 05:47:10;;;;;;;45.33;21.70;;;4.70;99.90;;;;;;782400;182;27051;-81
2024/02/29 05:49:37;;;;;;;41.77;19.80;;;4.80;99.90;;;;;;783093;183;26471;-79
2024/02/29 05:52:04;;;;;;;42.03;21.70;;;4.60;99.90;;;;;;783194;182;26483;-79
2024/02/29 05:54:31;;;;;;;44.23;20.63;;;4.60;99.90;;;;;;782599;183;26478;-79
2024/02/29 05:56:58;;;;;;;41.30;20.23;;;4.60;99.90;;;;;;783318;183;26503;-79
2024/02/29 05:59:23;;;;;;;48.53;21.03;;;4.60;99.90;;;;;;783346;183;27026;-81
2024/02/29 06:01:50;;;;;;;38.37;19.30;;;4.60;99.90;;;;;;781923;183;26516;-80
2024/02/29 06:04:17;;;;;;;43.37;20.50;;;4.60;99.90;;;;;;781052;181;26502;-79
2024/02/29 06:06:43;;;;;;;36.57;18.80;;;4.60;99.90;;;;;;782023;180;27067;-81
2024/02/29 06:09:14;;;;;;;41.37;19.77;;;4.50;99.90;;;;;;781905;183;26490;-81
2024/02/29 06:11:38;;;;;;;42.17;20.17;;;4.60;99.90;;;;;;782022;180;26479;-79
2024/02/29 06:14:05;;;;;;;39.87;20.07;;;4.50;99.90;;;;;;782371;183;26489;-80
2024/02/29 06:16:32;;;;;;;41.07;19.90;;;4.50;99.90;;;;;;782593;183;26494;-80
2024/02/29 06:18:58;;;;;;;42.47;19.53;;;4.50;99.90;;;;;;783177;183;26513;-80
2024/02/29 06:21:25;;;;;;;39.67;20.30;;;4.50;99.90;;;;;;782840;183;26499;-80
2024/02/29 06:23:53;;;;;;;39.93;19.13;;;4.40;99.90;;;;;;783891;183;26495;-81
2024/02/29 06:26:18;;;;;;;37.53;19.57;;;4.40;99.90;;;;;;782605;183;26469;-80
2024/02/29 06:28:46;;;;;;;38.57;20.07;;;4.50;99.90;;;;;;780097;183;27059;-79
2024/02/29 06:31:12;;;;;;;38.87;19.87;;;4.50;99.90;;;;;;782053;183;26469;-80
2024/02/29 06:33:38;;;;;;;40.63;19.03;;;4.50;99.90;;;;;;782316;183;26479;-81
2024/02/29 06:36:05;;;;;;;42.77;20.80;;;4.60;99.90;;;;;;782771;183;26542;-81
2024/02/29 06:38:32;;;;;;;38.17;17.47;;;4.60;99.90;;;;;;781215;181;27599;-79
2024/02/29 06:40:59;;;;;;;39.10;18.83;;;4.70;99.90;;;;;;780928;183;26507;-79
2024/02/29 06:43:26;;;;;;;40.57;20.17;;;4.70;99.90;;;;;;781615;183;27116;-80
2024/02/29 06:45:52;;;;;;;40.13;18.40;;;4.80;99.90;;;;;;782759;183;26486;-80
2024/02/29 06:48:19;;;;;;;36.67;19.43;;;4.80;99.90;;;;;;783123;183;26511;-80
2024/02/29 06:50:45;;;;;;;39.30;18.83;;;4.80;99.90;;;;;;780989;183;26475;-80
2024/02/29 06:53:13;;;;;;;35.13;18.20;;;4.80;99.90;;;;;;785841;181;27024;-79
2024/02/29 06:55:39;;;;;;;42.40;19.30;;;4.90;99.90;;;;;;785931;182;26494;-81
2024/02/29 06:58:06;;;;;;;37.57;17.70;;;4.90;99.90;;;;;;783035;182;26498;-81
2024/02/29 07:00:33;;;;;;;38.27;18.57;;;4.90;99.90;;;;;;783457;182;26474;-81
2024/02/29 07:03:00;;;;;;;36.90;18.13;;;4.90;99.90;;;;;;782702;183;26517;-82
2024/02/29 07:05:27;;;;;;;35.60;18.40;;;4.90;99.90;;;;;;783392;183;26483;-80
2024/02/29 07:07:54;;;;;;;38.97;18.33;;;4.90;99.90;;;;;;783809;183;26493;-80
2024/02/29 07:10:21;;;;;;;34.93;18.90;;;4.90;99.90;;;;;;784362;182;26479;-81
2024/02/29 07:12:47;;;;;;;37.27;19.77;;;4.90;99.90;;;;;;780949;182;26482;-80
2024/02/29 07:15:14;;;;;;;32.47;16.73;;;5.00;99.90;;;;;;781553;183;27034;-81
2024/02/29 07:17:41;;;;;;;36.70;17.70;;;5.00;99.90;;;;;;782650;181;26676;-81
2024/02/29 07:20:09;;;;;;;32.03;16.53;;;5.10;99.90;;;;;;782812;182;27101;-82
2024/02/29 07:22:34;;;;;;;37.80;17.67;;;5.00;99.90;;;;;;782546;183;26602;-81
2024/02/29 07:25:00;;;;;;;34.07;18.03;;;5.10;99.90;;;;;;783227;183;27060;-80
2024/02/29 07:27:27;;;;;;;33.53;16.37;;;5.10;99.90;;;;;;783445;183;26528;-81
2024/02/29 07:29:53;;;;;;;32.37;16.07;;;5.10;99.90;;;;;;783847;183;27013;-80
2024/02/29 07:32:20;;;;;;;32.50;16.47;;;5.20;99.90;;;;;;782030;183;26491;-80
2024/02/29 07:34:47;;;;;;;37.03;17.30;;;5.20;99.90;;;;;;781015;183;26501;-80
2024/02/29 07:37:13;;;;;;;36.97;17.57;;;5.30;99.90;;;;;;781679;183;27051;-80
2024/02/29 07:39:40;;;;;;;33.17;16.20;;;5.30;99.90;;;;;;782661;183;26525;-81
2024/02/29 07:42:07;;;;;;;32.47;16.70;;;5.40;99.90;;;;;;782331;183;26491;-79
2024/02/29 07:44:34;;;;;;;32.27;15.73;;;5.40;99.90;;;;;;781958;183;26475;-80
2024/02/29 07:47:00;;;;;;;32.03;17.20;;;5.50;99.90;;;;;;782033;183;26499;-79
2024/02/29 07:49:26;;;;;;;30.40;16.23;;;5.50;99.90;;;;;;781475;183;26489;-78
2024/02/29 07:51:54;;;;;;;33.10;16.83;;;5.40;99.90;;;;;;780737;183;27224;-80
2024/02/29 07:54:20;;;;;;;31.43;16.50;;;5.50;99.90;;;;;;780588;183;26495;-79
2024/02/29 07:56:47;;;;;;;33.00;16.47;;;5.50;99.90;;;;;;780878;183;26493;-79
2024/02/29 07:59:14;;;;;;;29.40;15.20;;;5.60;99.90;;;;;;790628;169;27145;-78
2024/02/29 08:01:48;;;;;;;34.20;16.03;;;5.70;99.90;;;;;;796145;177;26525;-78
2024/02/29 08:04:14;;;;;;;31.13;15.80;;;5.80;99.90;;;;;;800593;178;27016;-77
2024/02/29 08:06:41;;;;;;;29.83;15.87;;;5.80;99.90;;;;;;800048;177;26478;-78
2024/02/29 08:09:08;;;;;;;34.77;16.67;;;5.80;99.90;;;;;;790934;179;26627;-78
2024/02/29 08:11:34;;;;;;;28.90;14.23;;;5.90;99.90;;;;;;789713;180;26639;-78
2024/02/29 08:14:01;;;;;;;29.17;16.10;;;6.00;99.90;;;;;;782620;180;26458;-76
2024/02/29 08:16:27;;;;;;;29.73;14.73;;;6.10;99.90;;;;;;787267;180;27075;-77
2024/02/29 08:18:54;;;;;;;27.60;14.77;;;6.20;99.90;;;;;;777968;181;26531;-77
2024/02/29 08:21:20;;;;;;;32.53;15.33;;;6.30;99.90;;;;;;780956;180;27076;-77
2024/02/29 08:23:47;;;;;;;26.80;14.03;;;6.40;99.90;;;;;;783286;180;26507;-77
2024/02/29 08:26:14;;;;;;;29.40;15.87;;;6.40;99.90;;;;;;778978;180;27111;-76
2024/02/29 08:28:42;;;;;;;27.97;14.57;;;6.50;99.90;;;;;;783706;181;26479;-77
2024/02/29 08:31:07;;;;;;;32.47;15.47;;;6.70;99.90;;;;;;784183;180;26511;-77
2024/02/29 08:33:34;;;;;;;28.37;14.13;;;6.60;99.90;;;;;;776752;182;26463;-77
2024/02/29 08:36:01;;;;;;;29.23;14.30;;;6.70;99.90;;;;;;781521;181;26492;-77
2024/02/29 08:38:27;;;;;;;32.37;13.50;;;6.90;99.90;;;;;;780219;182;26512;-77
2024/02/29 08:40:54;;;;;;;32.63;15.20;;;6.90;99.90;;;;;;781747;181;26458;-78
2024/02/29 08:43:21;;;;;;;27.70;13.73;;;7.10;99.90;;;;;;789401;180;26460;-77
2024/02/29 08:45:49;;;;;;;27.23;14.63;;;7.30;99.90;;;;;;784399;182;26473;-78
2024/02/29 08:48:15;;;;;;;25.37;14.13;;;7.30;99.90;;;;;;777608;182;26475;-79
2024/02/29 08:50:41;;;;;;;28.77;13.40;;;7.30;99.60;;;;;;784168;181;26461;-78
2024/02/29 08:53:08;;;;;;;29.27;14.37;;;7.50;99.90;;;;;;787562;180;26472;-78
2024/02/29 08:55:34;;;;;;;28.07;14.40;;;7.80;99.90;;;;;;785469;180;26452;-78
2024/02/29 08:58:01;;;;;;;28.13;14.17;;;8.10;98.90;;;;;;788740;180;26473;-77
2024/02/29 09:00:27;;;;;;;26.57;13.00;;;8.30;99.90;;;;;;786544;180;26450;-79
2024/02/29 09:02:54;;;;;;;24.10;12.30;;;8.30;98.00;;;;;;789701;180;26441;-78
2024/02/29 09:05:22;;;;;;;25.27;14.23;;;8.20;97.80;;;;;;783209;180;26438;-79
2024/02/29 09:07:48;;;;;;;26.27;13.93;;;8.00;97.60;;;;;;787577;181;26450;-78
2024/02/29 09:10:15;;;;;;;25.20;13.30;;;8.10;98.40;;;;;;785432;180;26484;-78
2024/02/29 09:12:41;;;;;;;24.20;12.83;;;8.50;97.50;;;;;;786610;181;26498;-78
2024/02/29 09:15:08;;;;;;;26.17;13.13;;;8.70;97.60;;;;;;782053;181;26453;-78
2024/02/29 09:17:35;;;;;;;24.17;13.13;;;8.90;96.40;;;;;;784692;180;26632;-78
2024/02/29 09:20:04;;;;;;;27.47;14.33;;;8.70;96.30;;;;;;784617;180;26487;-79
2024/02/29 09:22:28;;;;;;;25.20;13.10;;;9.10;96.60;;;;;;785780;180;26796;-79
2024/02/29 09:24:55;;;;;;;25.23;13.70;;;9.10;95.40;;;;;;787145;180;26442;-80
2024/02/29 09:27:22;;;;;;;25.43;12.90;;;9.10;94.60;;;;;;790618;180;27016;-79
2024/02/29 09:29:49;;;;;;;24.20;12.33;;;9.20;95.20;;;;;;783612;182;26660;-78
2024/02/29 09:32:16;;;;;;;21.73;12.23;;;8.90;94.70;;;;;;785195;182;26483;-78
2024/02/29 09:34:44;;;;;;;22.97;12.47;;;9.00;95.30;;;;;;785079;182;26461;-78
2024/02/29 09:37:09;;;;;;;23.37;12.33;;;9.10;95.50;;;;;;785970;182;26467;-78
2024/02/29 09:39:35;;;;;;;23.10;11.67;;;8.90;94.60;;;;;;776507;181;26691;-78
2024/02/29 09:42:03;;;;;;;26.37;13.07;;;9.10;94.90;;;;;;783490;180;26467;-79
2024/02/29 09:44:29;;;;;;;22.97;12.37;;;9.30;95.90;;;;;;785681;180;26478;-79
2024/02/29 09:46:56;;;;;;;19.67;11.57;;;9.50;94.30;;;;;;789873;180;26697;-76
2024/02/29 09:49:23;;;;;;;21.63;12.73;;;9.50;94.70;;;;;;782141;181;26500;-78
2024/02/29 09:51:49;;;;;;;21.93;12.53;;;9.60;94.80;;;;;;788979;180;26457;-78
2024/02/29 09:54:18;;;;;;;18.90;11.60;;;9.80;96.60;;;;;;782112;180;28080;-78
2024/02/29 09:56:45;;;;;;;21.27;12.43;;;10.00;92.90;;;;;;790672;180;26462;-78
2024/02/29 09:59:13;;;;;;;24.03;12.53;;;10.00;92.90;;;;;;788987;179;26602;-78
2024/02/29 10:01:39;;;;;;;18.77;11.57;;;9.90;93.20;;;;;;791116;179;26472;-78
2024/02/29 10:04:07;;;;;;;24.37;13.27;;;10.20;94.30;;;;;;787697;180;26500;-77
2024/02/29 10:06:33;;;;;;;22.60;13.23;;;10.30;92.60;;;;;;785751;180;26474;-78
2024/02/29 10:09:00;;;;;;;23.57;13.53;;;10.30;93.20;;;;;;784801;181;26474;-78
2024/02/29 10:11:31;;;;;;;24.67;14.20;;;10.20;92.00;;;;;;785829;180;26469;-78
2024/02/29 10:13:57;;;;;;;21.77;11.70;;;10.50;93.20;;;;;;789958;180;26453;-78
2024/02/29 10:16:24;;;;;;;22.23;11.83;;;10.60;92.40;;;;;;786640;180;26467;-77
2024/02/29 10:18:50;;;;;;;18.53;10.63;;;10.60;92.40;;;;;;783561;182;26538;-78
2024/02/29 10:21:17;;;;;;;22.47;11.90;;;10.50;91.80;;;;;;781573;180;26477;-78
2024/02/29 10:23:44;;;;;;;18.57;11.30;;;10.50;92.00;;;;;;787613;180;26465;-78
2024/02/29 10:26:11;;;;;;;17.53;10.70;;;10.40;91.50;;;;;;789909;178;27026;-77
2024/02/29 10:28:38;;;;;;;18.07;10.17;;;10.60;91.40;;;;;;790029;179;26486;-79
2024/02/29 10:31:04;;;;;;;18.07;10.63;;;10.80;92.10;;;;;;788838;180;26628;-76
2024/02/29 10:33:33;;;;;;;16.17;10.20;;;11.10;90.60;;;;;;782209;180;26454;-78
2024/02/29 10:35:58;;;;;;;17.07;10.10;;;11.50;91.20;;;;;;790007;180;26486;-77
2024/02/29 10:38:24;;;;;;;16.03;9.53;;;11.70;86.80;;;;;;784281;180;26461;-77
2024/02/29 10:40:52;;;;;;;17.93;10.67;;;11.70;85.60;;;;;;770353;183;26541;-78
2024/02/29 10:43:19;;;;;;;17.03;10.10;;;11.90;85.40;;;;;;772369;183;26476;-77
2024/02/29 10:45:46;;;;;;;18.70;10.17;;;11.50;85.90;;;;;;771807;183;26471;-77
2024/02/29 10:48:20;;;;;;;19.70;10.63;;;11.40;85.60;;;;;;775454;183;26510;-76
2024/02/29 10:50:53;;;;;;;21.63;10.20;;;11.50;90.60;;;;;;767535;184;27029;-77
2024/02/29 10:53:34;;;;;;;21.10;11.17;;;11.60;85.80;;;;;;772678;183;26518;-77
2024/02/29 10:56:01;;;;;;;14.40;9.00;;;12.00;84.10;;;;;;766369;183;26471;-79
2024/02/29 10:58:29;;;;;;;15.13;9.47;;;11.90;83.20;;;;;;783660;180;27003;-77
2024/02/29 11:00:54;;;;;;;15.97;9.50;;;11.90;85.10;;;;;;790893;180;26464;-77
2024/02/29 11:03:21;;;;;;;16.50;9.97;;;12.00;86.40;;;;;;783796;180;26478;-78
2024/02/29 11:05:47;;;;;;;21.40;10.30;;;12.00;87.90;;;;;;786468;180;26481;-77
2024/02/29 11:08:14;;;;;;;16.90;10.07;;;11.80;83.70;;;;;;787499;180;26468;-79
2024/02/29 11:10:41;;;;;;;15.43;9.17;;;12.00;84.60;;;;;;781260;182;26475;-79
2024/02/29 11:13:08;;;;;;;19.13;11.23;;;12.50;87.30;;;;;;782848;181;26615;-78
2024/02/29 11:15:35;;;;;;;15.80;9.47;;;12.50;82.20;;;;;;778062;181;26460;-78
2024/02/29 11:18:01;;;;;;;16.43;10.03;;;12.50;84.10;;;;;;781779;181;27016;-77
2024/02/29 11:20:28;;;;;;;19.33;10.83;;;12.30;82.30;;;;;;784169;180;26458;-78
2024/02/29 11:23:04;;;;;;;17.20;10.07;;;12.30;83.20;;;;;;788115;180;27055;-78
2024/02/29 11:25:31;;;;;;;18.47;10.80;;;12.10;88.50;;;;;;786265;180;26445;-77
2024/02/29 11:27:58;;;;;;;16.03;10.00;;;12.00;87.60;;;;;;791629;180;26489;-78
2024/02/29 11:30:24;;;;;;;16.27;10.13;;;12.10;88.70;;;;;;783772;181;26458;-77
2024/02/29 11:32:51;;;;;;;16.60;10.50;;;12.30;89.70;;;;;;781861;180;26482;-78
2024/02/29 11:35:17;;;;;;;15.63;9.17;;;12.20;88.30;;;;;;783661;180;26514;-77
2024/02/29 11:37:44;;;;;;;14.87;9.43;;;12.20;85.40;;;;;;784802;180;26477;-77
2024/02/29 11:40:13;;;;;;;16.93;9.57;;;12.10;84.20;;;;;;789698;179;26497;-78
2024/02/29 11:42:39;;;;;;;16.67;9.97;;;12.10;88.50;;;;;;788771;180;26466;-78
2024/02/29 11:45:07;;;;;;;16.37;10.07;;;12.10;86.00;;;;;;788002;180;26539;-78
2024/02/29 11:47:33;;;;;;;15.40;10.17;;;11.90;86.70;;;;;;786154;180;26480;-78
2024/02/29 11:49:59;;;;;;;15.87;8.87;;;12.00;89.20;;;;;;784098;180;26465;-78
2024/02/29 11:52:26;;;;;;;11.43;8.23;;;11.70;88.40;;;;;;784336;180;26523;-78
2024/02/29 11:54:53;;;;;;;17.67;9.90;;;11.60;89.30;;;;;;790070;180;27010;-77
2024/02/29 11:57:20;;;;;;;13.93;8.30;;;11.70;90.30;;;;;;789752;180;26481;-77
2024/02/29 11:59:47;;;;;;;15.23;9.10;;;11.80;88.90;;;;;;795844;180;26495;-76
2024/02/29 12:02:25;;;;;;;14.43;9.27;;;11.80;89.00;;;;;;789572;180;26460;-78
2024/02/29 12:04:52;;;;;;;14.47;8.10;;;11.80;89.90;;;;;;788814;181;26583;-77
2024/02/29 12:07:18;;;;;;;15.13;8.80;;;11.80;91.00;;;;;;786207;182;27632;-77
2024/02/29 12:09:44;;;;;;;14.73;8.90;;;11.80;89.50;;;;;;778329;181;26478;-78
2024/02/29 12:12:12;;;;;;;11.60;8.03;;;11.80;90.00;;;;;;776417;184;26467;-77
2024/02/29 12:14:38;;;;;;;12.40;7.80;;;11.80;90.60;;;;;;776021;184;27024;-78
2024/02/29 12:17:04;;;;;;;15.67;8.27;;;11.90;90.50;;;;;;784523;180;26632;-77
2024/02/29 12:19:31;;;;;;;14.63;8.30;;;11.90;90.40;;;;;;786033;180;26462;-78
2024/02/29 12:21:57;;;;;;;13.03;7.83;;;11.90;90.00;;;;;;787199;180;27055;-79
2024/02/29 12:24:26;;;;;;;13.33;7.87;;;12.00;90.70;;;;;;783798;180;26611;-77
2024/02/29 12:26:51;;;;;;;12.13;7.77;;;11.90;88.10;;;;;;785476;180;26453;-78
2024/02/29 12:29:18;;;;;;;12.83;7.67;;;11.80;89.40;;;;;;785051;180;26468;-78
2024/02/29 12:31:45;;;;;;;14.83;7.87;;;12.00;90.80;;;;;;783923;181;26500;-78
2024/02/29 12:34:11;;;;;;;15.17;7.37;;;12.10;90.60;;;;;;786589;181;26635;-78